Time;durP1;ratioP1;P1;durP2;ratioP2;P2;SDS_P1;SDS_P2;PMS_P1;PMS_P2;Temp;Humidity;BMP_temperature;BMP_pressure;BME280_temperature;BME280_humidity;BME280_pressure;Samples;Min_cycle;Max_cycle;Signal;HPM_P1;HPM_P2
2022/09/29 00:01:50;;;;;;;3.28;1.58;;;;;;;22.28;48.89;98578.13;5091227;28;20119;-78
2022/09/29 00:04:15;;;;;;;2.70;1.90;;;;;;;22.03;48.80;98528.78;5090344;28;20028;-78
2022/09/29 00:06:41;;;;;;;2.47;1.60;;;;;;;22.46;48.69;98596.31;5091554;28;20032;-78
2022/09/29 00:09:06;;;;;;;2.90;1.65;;;;;;;22.12;48.86;98537.06;5090439;28;20488;-78
2022/09/29 00:11:32;;;;;;;2.33;1.60;;;;;;;22.64;49.06;98637.91;5090437;28;20016;-78
2022/09/29 00:13:57;;;;;;;2.55;1.88;;;;;;;22.37;49.28;98588.03;5091750;28;20043;-78
2022/09/29 00:16:23;;;;;;;6.68;1.80;;;;;;;22.43;49.45;98591.50;5090506;28;20030;-79
2022/09/29 00:18:48;;;;;;;5.03;2.20;;;;;;;22.15;49.68;98541.88;5090307;28;20024;-78
2022/09/29 00:21:20;;;;;;;4.07;1.88;;;;;;;22.55;49.69;98626.13;5091405;28;20027;-78
2022/09/29 00:23:47;;;;;;;4.90;1.83;;;;;;;22.55;49.95;98608.09;5091134;28;20520;-78
2022/09/29 00:26:15;;;;;;;3.05;1.80;;;;;;;22.54;49.97;98603.00;5091129;28;20110;-78
2022/09/29 00:28:45;;;;;;;2.17;1.70;;;;;;;22.51;50.19;98605.16;5091152;28;20095;-79
2022/09/29 00:31:11;;;;;;;5.13;1.80;;;;;;;22.47;50.23;98608.69;5090968;28;20021;-78
2022/09/29 00:33:39;;;;;;;4.65;2.47;;;;;;;22.28;50.25;98583.50;5091265;28;20031;-78
2022/09/29 00:36:08;;;;;;;5.20;1.80;;;;;;;22.49;50.22;98609.22;5093025;28;20032;-79
2022/09/29 00:38:34;;;;;;;3.78;1.70;;;;;;;22.46;50.26;98602.50;5095214;28;20028;-78
2022/09/29 00:41:01;;;;;;;3.63;2.10;;;;;;;21.90;50.44;98518.63;5094466;28;20024;-78
2022/09/29 00:43:50;;;;;;;3.75;1.85;;;;;;;22.40;50.63;98587.50;5094879;28;20024;-78
2022/09/29 00:46:41;;;;;;;2.50;1.63;;;;;;;22.04;50.66;98543.03;5093983;28;20031;-78
2022/09/29 00:49:22;;;;;;;4.05;1.80;;;;;;;22.26;50.42;98580.28;5094453;28;20035;-78
2022/09/29 00:52:18;;;;;;;4.57;2.15;;;;;;;21.95;50.41;98553.53;5094790;28;20492;-78
2022/09/29 00:54:48;;;;;;;3.53;1.70;;;;;;;22.28;50.23;98591.56;5094900;28;20051;-79
2022/09/29 00:57:18;;;;;;;4.43;1.93;;;;;;;21.55;50.21;98482.78;5094788;28;20020;-78
2022/09/29 00:59:47;;;;;;;2.70;1.80;;;;;;;21.44;50.22;98456.19;5094780;28;20341;-78
2022/09/29 01:02:14;;;;;;;3.65;1.65;;;;;;;21.38;50.28;98454.63;5094743;28;20040;-78
2022/09/29 01:04:41;;;;;;;4.82;1.75;;;;;;;21.79;50.31;98536.66;5093548;28;20510;-78
2022/09/29 01:07:09;;;;;;;4.47;1.90;;;;;;;21.47;50.20;98472.56;5094527;28;20036;-78
2022/09/29 01:09:37;;;;;;;4.75;1.80;;;;;;;22.13;50.07;98576.31;5094378;28;20551;-78
2022/09/29 01:12:03;;;;;;;3.35;1.75;;;;;;;21.69;50.11;98519.78;5094447;28;20520;-78
2022/09/29 01:14:31;;;;;;;4.30;2.00;;;;;;;21.67;50.19;98544.25;5094238;28;20055;-78
2022/09/29 01:16:57;;;;;;;6.22;1.83;;;;;;;21.62;50.13;98512.03;5094309;28;20020;-79
2022/09/29 01:19:28;;;;;;;1.88;1.40;;;;;;;22.02;50.21;98580.91;5092894;28;20034;-78
2022/09/29 01:22:12;;;;;;;2.58;1.77;;;;;;;22.02;50.24;98575.53;5093979;28;20024;-78
2022/09/29 01:24:56;;;;;;;3.72;2.03;;;;;;;21.97;50.46;98591.69;5093947;28;20033;-78
2022/09/29 01:27:30;;;;;;;6.07;2.05;;;;;;;21.43;50.64;98508.31;5093825;28;20031;-79
2022/09/29 01:30:08;;;;;;;4.32;1.90;;;;;;;21.84;50.89;98581.53;5093964;28;20027;-78
2022/09/29 01:32:57;;;;;;;3.55;1.73;;;;;;;20.49;50.93;98423.91;5093879;28;20035;-78
2022/09/29 01:35:28;;;;;;;3.08;1.83;;;;;;;21.76;50.92;98590.97;5090477;28;20044;-79
2022/09/29 01:38:00;;;;;;;4.28;2.08;;;;;;;21.35;51.13;98533.03;5094316;28;20030;-78
2022/09/29 01:40:41;;;;;;;4.13;2.28;;;;;;;21.70;51.25;98584.00;5094753;28;20498;-79
2022/09/29 01:43:13;;;;;;;3.83;1.83;;;;;;;21.69;51.29;98590.44;5110216;28;20062;-79
2022/09/29 01:45:46;;;;;;;4.25;1.77;;;;;;;21.43;51.25;98546.69;5118383;28;20057;-77
2022/09/29 01:48:18;;;;;;;4.65;2.08;;;;;;;21.68;51.44;98582.66;5094054;28;20020;-78
2022/09/29 01:50:50;;;;;;;4.90;2.03;;;;;;;21.36;51.32;98535.44;5092993;28;20020;-78
2022/09/29 01:53:24;;;;;;;5.70;2.15;;;;;;;21.63;51.12;98585.34;5093792;28;20220;-78
2022/09/29 01:55:54;;;;;;;3.05;1.42;;;;;;;21.47;51.13;98561.19;5092123;28;20016;-78
2022/09/29 01:58:29;;;;;;;3.92;1.80;;;;;;;21.14;50.98;98526.88;5093492;28;20407;-78
2022/09/29 02:00:59;;;;;;;5.10;2.50;;;;;;;20.96;51.17;98489.88;5093185;28;20509;-78
2022/09/29 02:03:30;;;;;;;5.72;2.25;;;;;;;21.51;51.15;98583.75;5093353;28;20468;-78
2022/09/29 02:06:03;;;;;;;3.83;1.70;;;;;;;21.05;51.16;98531.19;5092113;28;20553;-78
2022/09/29 02:08:36;;;;;;;6.07;2.20;;;;;;;21.39;51.49;98574.38;5093638;28;20039;-78
2022/09/29 02:11:05;;;;;;;5.32;2.20;;;;;;;21.46;51.36;98586.44;5093389;28;20031;-78
2022/09/29 02:13:39;;;;;;;6.60;2.58;;;;;;;21.23;51.48;98554.81;5093378;28;20496;-78
2022/09/29 02:16:10;;;;;;;6.47;2.90;;;;;;;21.49;51.34;98611.94;5093400;28;20073;-78
2022/09/29 02:18:45;;;;;;;6.15;2.92;;;;;;;21.01;51.51;98528.25;5093287;28;20144;-78
2022/09/29 02:21:10;;;;;;;5.45;2.80;;;;;;;21.45;51.72;98606.31;5092965;28;20020;-78
2022/09/29 02:23:35;;;;;;;5.38;2.63;;;;;;;20.58;51.49;98474.06;5093181;28;20420;-78
2022/09/29 02:26:01;;;;;;;4.40;2.33;;;;;;;21.30;51.78;98586.75;5093124;28;20101;-78
2022/09/29 02:28:27;;;;;;;6.70;3.05;;;;;;;20.58;51.91;98490.16;5093192;28;20031;-78
2022/09/29 02:30:53;;;;;;;5.68;2.85;;;;;;;21.32;51.79;98609.56;5092718;28;20055;-78
2022/09/29 02:33:21;;;;;;;3.70;2.45;;;;;;;21.33;51.80;98615.75;5091970;28;20031;-78
2022/09/29 02:36:22;;;;;;;5.47;2.38;;;;;;;21.25;52.01;98623.25;5093151;28;20031;-78
2022/09/29 02:39:00;;;;;;;7.00;2.50;;;;;;;21.20;52.11;98617.88;5093021;28;20052;-78
2022/09/29 02:41:53;;;;;;;4.63;2.28;;;;;;;21.23;51.85;98627.28;5092608;28;20028;-78
2022/09/29 02:44:44;;;;;;;4.53;2.20;;;;;;;20.75;52.11;98551.56;5091761;28;20047;-78
2022/09/29 02:47:25;;;;;;;5.32;2.28;;;;;;;21.17;52.29;98626.47;5091418;28;20027;-78
2022/09/29 02:50:19;;;;;;;6.18;2.78;;;;;;;21.13;52.35;98621.91;5092668;28;20020;-78
2022/09/29 02:52:44;;;;;;;6.55;2.75;;;;;;;21.13;52.20;98632.63;5092440;28;20135;-78
2022/09/29 02:55:31;;;;;;;6.00;3.30;;;;;;;20.81;52.51;98580.03;5092554;28;20062;-78
2022/09/29 02:58:06;;;;;;;5.60;2.90;;;;;;;20.91;52.23;98600.69;5090516;28;20119;-78
2022/09/29 03:00:32;;;;;;;8.88;3.25;;;;;;;20.29;52.50;98499.75;5092311;28;20127;-79
2022/09/29 03:02:57;;;;;;;8.48;3.53;;;;;;;21.17;52.47;98618.41;5092629;28;20020;-78
2022/09/29 03:05:23;;;;;;;5.47;2.92;;;;;;;20.77;52.59;98557.47;5091168;28;20385;-78
2022/09/29 03:07:49;;;;;;;3.17;2.00;;;;;;;20.90;52.49;98585.69;5092553;28;20050;-79
2022/09/29 03:10:15;;;;;;;5.18;2.42;;;;;;;21.18;52.54;98627.25;5092555;28;20061;-78
2022/09/29 03:12:41;;;;;;;3.17;2.00;;;;;;;20.81;52.61;98558.56;5092828;28;20474;-79
2022/09/29 03:15:08;;;;;;;2.83;2.15;;;;;;;21.22;52.41;98633.72;5091990;28;20081;-79
2022/09/29 03:17:33;;;;;;;4.80;2.17;;;;;;;20.93;52.61;98569.03;5091939;28;20504;-79
2022/09/29 03:19:59;;;;;;;3.92;1.77;;;;;;;21.22;52.46;98623.81;5091899;28;20026;-79
2022/09/29 03:22:24;;;;;;;4.10;2.00;;;;;;;20.75;52.65;98535.47;5090484;28;20043;-79
2022/09/29 03:24:50;;;;;;;3.78;2.00;;;;;;;20.75;52.66;98545.41;5091514;28;20031;-79
2022/09/29 03:27:15;;;;;;;4.25;2.08;;;;;;;21.36;52.58;98637.47;5092108;28;20026;-79
2022/09/29 03:29:41;;;;;;;3.95;2.03;;;;;;;21.08;52.54;98589.69;5091973;28;20024;-79
2022/09/29 03:32:06;;;;;;;3.63;2.17;;;;;;;21.41;52.49;98624.06;5090739;28;20020;-79
2022/09/29 03:34:32;;;;;;;3.58;2.00;;;;;;;21.07;52.43;98569.28;5092136;28;20027;-78
2022/09/29 03:36:58;;;;;;;4.72;2.28;;;;;;;21.10;52.45;98574.94;5090715;28;20027;-79
2022/09/29 03:39:24;;;;;;;4.15;1.80;;;;;;;21.44;52.39;98626.19;5091926;28;20024;-79
2022/09/29 03:41:50;;;;;;;4.13;2.13;;;;;;;21.45;52.12;98635.88;5091800;28;20032;-79
2022/09/29 03:44:15;;;;;;;4.43;2.00;;;;;;;21.42;52.48;98635.59;5091099;28;20024;-79
2022/09/29 03:46:41;;;;;;;4.13;1.92;;;;;;;21.41;52.54;98629.41;5091818;28;20057;-79
2022/09/29 03:49:10;;;;;;;5.38;2.10;;;;;;;21.38;52.55;98626.47;5091709;28;20020;-79
2022/09/29 03:51:35;;;;;;;4.00;1.80;;;;;;;20.81;52.48;98533.63;5091545;28;20020;-79
2022/09/29 03:54:01;;;;;;;3.25;2.00;;;;;;;21.37;52.57;98631.03;5091438;28;20021;-79
2022/09/29 03:56:26;;;;;;;4.65;2.33;;;;;;;21.03;52.88;98585.13;5091352;28;20412;-79
2022/09/29 03:58:51;;;;;;;4.60;2.10;;;;;;;21.30;52.92;98629.72;5091379;28;20024;-79
2022/09/29 04:01:17;;;;;;;3.22;2.00;;;;;;;20.83;52.95;98544.88;5091398;28;20119;-78
2022/09/29 04:03:42;;;;;;;5.47;2.30;;;;;;;20.96;53.04;98570.38;5091498;28;20436;-79
2022/09/29 04:06:08;;;;;;;4.30;2.00;;;;;;;20.80;53.03;98561.50;5091502;28;20028;-79
2022/09/29 04:08:36;;;;;;;7.47;2.35;;;;;;;20.66;53.14;98537.09;5091838;28;20016;-78
2022/09/29 04:11:02;;;;;;;5.00;2.53;;;;;;;20.93;53.19;98582.44;5095627;28;20469;-78
2022/09/29 04:13:27;;;;;;;9.85;3.22;;;;;;;20.83;53.16;98567.16;5096054;28;20055;-78
2022/09/29 04:16:00;;;;;;;6.22;2.40;;;;;;;21.27;53.15;98632.94;5094368;28;20071;-78
2022/09/29 04:18:27;;;;;;;6.55;2.30;;;;;;;21.28;53.01;98634.53;5095190;28;20136;-78
2022/09/29 04:20:53;;;;;;;3.63;2.08;;;;;;;21.02;53.30;98610.34;5094270;28;20031;-78
2022/09/29 04:23:19;;;;;;;4.80;2.38;;;;;;;20.47;53.43;98565.50;5095523;28;20504;-78
2022/09/29 04:25:44;;;;;;;3.58;2.13;;;;;;;21.03;53.39;98616.53;5093783;28;20024;-78
2022/09/29 04:28:10;;;;;;;5.25;2.22;;;;;;;21.07;53.42;98623.78;5095039;28;20077;-78
2022/09/29 04:30:35;;;;;;;5.18;2.40;;;;;;;20.89;53.18;98606.34;5095484;28;20091;-78
2022/09/29 04:33:01;;;;;;;5.80;2.30;;;;;;;20.65;53.14;98551.56;5095115;28;20160;-78
2022/09/29 04:35:26;;;;;;;6.93;2.40;;;;;;;21.19;53.33;98643.09;5094978;28;20473;-78
2022/09/29 04:37:56;;;;;;;5.18;1.98;;;;;;;21.22;53.53;98650.66;5095211;28;20024;-78
2022/09/29 04:40:23;;;;;;;5.32;2.40;;;;;;;20.38;53.43;98513.44;5095550;28;20024;-78
2022/09/29 04:42:48;;;;;;;5.35;2.33;;;;;;;21.24;53.60;98642.31;5095380;28;20027;-78
2022/09/29 04:45:13;;;;;;;6.40;2.15;;;;;;;20.77;53.43;98592.34;5095335;28;20432;-78
2022/09/29 04:47:39;;;;;;;4.90;2.33;;;;;;;20.79;53.48;98584.03;5106768;28;20067;-78
2022/09/29 04:50:05;;;;;;;5.10;2.17;;;;;;;21.00;53.48;98617.06;5121318;28;20036;-79
2022/09/29 04:52:30;;;;;;;4.40;2.42;;;;;;;21.12;53.38;98641.75;5100696;28;20089;-78
2022/09/29 04:54:56;;;;;;;5.03;2.55;;;;;;;20.82;53.45;98580.84;5094622;28;20110;-78
2022/09/29 04:57:21;;;;;;;5.22;2.50;;;;;;;20.95;53.46;98623.25;5093142;28;20047;-78
2022/09/29 04:59:50;;;;;;;4.53;2.33;;;;;;;20.50;53.45;98544.31;5094406;28;20024;-79
2022/09/29 05:02:16;;;;;;;6.50;2.78;;;;;;;20.90;53.40;98623.25;5094523;28;20020;-78
2022/09/29 05:04:41;;;;;;;5.18;2.47;;;;;;;21.07;53.48;98650.63;5094587;28;20019;-78
2022/09/29 05:07:07;;;;;;;3.60;2.42;;;;;;;20.20;53.48;98518.25;5094724;28;20061;-78
2022/09/29 05:09:32;;;;;;;4.70;2.17;;;;;;;20.31;53.76;98533.28;5094979;28;20027;-78
2022/09/29 05:11:57;;;;;;;5.07;2.50;;;;;;;20.83;53.77;98612.78;5095072;28;20016;-78
2022/09/29 05:14:23;;;;;;;5.18;2.22;;;;;;;20.97;53.69;98634.50;5099117;28;20032;-79
2022/09/29 05:16:48;;;;;;;3.78;2.53;;;;;;;20.77;53.68;98603.06;5121518;28;20035;-79
2022/09/29 05:19:14;;;;;;;5.50;2.60;;;;;;;20.79;53.51;98594.75;5100576;28;20408;-78
2022/09/29 05:21:39;;;;;;;5.32;2.70;;;;;;;20.92;53.63;98615.72;5092834;28;20118;-78
2022/09/29 05:24:04;;;;;;;4.43;2.10;;;;;;;20.97;53.67;98617.59;5091364;28;20032;-78
2022/09/29 05:26:30;;;;;;;3.72;2.63;;;;;;;20.73;53.39;98591.28;5073077;28;20512;-78
2022/09/29 05:28:55;;;;;;;6.75;3.30;;;;;;;21.08;53.64;98635.31;5074192;28;20515;-78
2022/09/29 05:31:21;;;;;;;10.82;4.13;;;;;;;21.03;53.38;98620.03;5072616;28;20031;-79
2022/09/29 05:33:46;;;;;;;9.07;4.10;;;;;;;20.78;53.29;98561.75;5073918;28;20078;-79
2022/09/29 05:36:12;;;;;;;8.70;4.90;;;;;;;21.25;53.41;98638.56;5076972;28;20583;-78
2022/09/29 05:38:38;;;;;;;11.52;5.07;;;;;;;21.51;53.32;98668.88;5093985;28;20028;-78
2022/09/29 05:41:09;;;;;;;8.70;4.97;;;;;;;21.55;53.38;98672.66;5093876;28;20027;-79
2022/09/29 05:43:35;;;;;;;11.82;4.95;;;;;;;21.56;53.20;98668.91;5093850;28;20039;-78
2022/09/29 05:46:02;;;;;;;10.75;5.00;;;;;;;21.66;53.15;98678.84;5094050;28;20032;-77
2022/09/29 05:48:29;;;;;;;8.82;6.40;;;;;;;21.24;53.27;98605.53;5093616;28;20035;-78
2022/09/29 05:50:58;;;;;;;8.00;6.35;;;;;;;21.64;53.10;98676.44;5093762;28;20021;-79
2022/09/29 05:53:25;;;;;;;10.00;5.88;;;;;;;21.89;52.99;98683.63;5093735;28;20620;-80
2022/09/29 05:55:50;;;;;;;9.48;4.15;;;;;;;21.97;53.20;98679.56;5092364;28;20023;-79
2022/09/29 05:58:16;;;;;;;8.25;4.07;;;;;;;21.80;53.24;98640.38;5093792;28;20428;-78
2022/09/29 06:00:42;;;;;;;5.25;3.50;;;;;;;21.93;52.78;98644.38;5087708;28;20062;-78
2022/09/29 06:03:07;;;;;;;6.35;3.15;;;;;;;22.11;52.62;98672.56;5073703;28;20028;-78
2022/09/29 06:05:37;;;;;;;9.85;4.15;;;;;;;22.14;52.84;98691.66;5073568;28;20136;-79
2022/09/29 06:08:03;;;;;;;6.22;4.95;;;;;;;21.64;52.89;98595.03;5073695;28;20029;-78
2022/09/29 06:10:28;;;;;;;6.88;3.50;;;;;;;22.21;52.75;98680.59;5073668;28;20058;-78
2022/09/29 06:12:54;;;;;;;5.85;2.97;;;;;;;21.55;52.83;98589.38;5072688;28;20039;-79
2022/09/29 06:15:19;;;;;;;7.55;2.80;;;;;;;21.51;52.95;98573.00;5073805;28;20060;-79
2022/09/29 06:17:44;;;;;;;5.63;3.10;;;;;;;21.55;52.93;98574.09;5072626;28;20480;-78
2022/09/29 06:20:11;;;;;;;5.38;2.85;;;;;;;20.54;52.96;98416.66;5072787;28;20082;-79
2022/09/29 06:22:36;;;;;;;4.88;3.38;;;;;;;22.39;53.00;98692.66;5074157;28;20390;-77
2022/09/29 06:25:02;;;;;;;5.15;3.13;;;;;;;22.40;52.93;98705.03;5074167;28;20039;-77
2022/09/29 06:27:27;;;;;;;5.05;3.65;;;;;;;22.45;52.91;98695.06;5073973;28;20031;-79
2022/09/29 06:29:53;;;;;;;6.10;3.20;;;;;;;22.32;52.92;98668.75;5076240;28;20421;-79
2022/09/29 06:32:18;;;;;;;5.28;3.42;;;;;;;21.93;53.08;98595.19;5088784;28;20024;-79
2022/09/29 06:37:33;;;;;;;9.00;4.68;;;;;;;22.52;53.21;98679.41;5090284;28;20515;-80
2022/09/29 06:39:59;;;;;;;6.15;3.50;;;;;;;22.13;53.10;98611.25;5090778;28;20052;-79
2022/09/29 06:42:25;;;;;;;4.47;3.22;;;;;;;22.71;53.28;98700.31;5092034;28;20469;-78
2022/09/29 06:44:50;;;;;;;5.20;3.38;;;;;;;22.14;53.09;98610.19;5086576;28;20108;-79
2022/09/29 06:47:16;;;;;;;6.35;4.20;;;;;;;22.40;53.16;98627.03;5073485;28;20040;-79
2022/09/29 06:49:42;;;;;;;6.93;3.42;;;;;;;22.29;52.98;98606.63;5085087;28;20405;-79
2022/09/29 06:52:07;;;;;;;6.22;3.30;;;;;;;22.88;52.90;98706.16;5092420;28;20036;-79
2022/09/29 06:54:33;;;;;;;3.17;2.70;;;;;;;22.25;52.68;98576.78;5081743;28;20480;-77
2022/09/29 06:56:59;;;;;;;6.72;3.33;;;;;;;23.02;52.74;98692.88;5092831;28;20081;-78
2022/09/29 06:59:25;;;;;;;5.07;2.85;;;;;;;23.07;52.81;98692.88;5084854;28;20031;-78
2022/09/29 07:01:53;;;;;;;6.00;3.72;;;;;;;23.03;52.41;98697.97;5090553;28;20500;-79
2022/09/29 07:04:20;;;;;;;4.65;3.60;;;;;;;23.14;51.56;98690.66;5084366;28;20024;-79
2022/09/29 07:06:46;;;;;;;3.00;2.47;;;;;;;23.13;51.21;98694.44;5079151;28;20405;-79
2022/09/29 07:09:14;;;;;;;7.15;3.03;;;;;;;22.50;50.53;98600.06;5087951;28;20031;-79
2022/09/29 07:11:45;;;;;;;4.60;2.90;;;;;;;22.68;50.17;98631.69;5086053;28;20027;-79
2022/09/29 07:14:11;;;;;;;3.37;2.37;;;;;;;22.67;49.87;98657.00;5073302;28;20032;-79
2022/09/29 07:16:37;;;;;;;3.55;2.97;;;;;;;23.06;49.50;98700.16;5084716;28;20290;-79
2022/09/29 07:19:02;;;;;;;5.65;2.85;;;;;;;23.09;49.15;98715.75;5092635;28;20044;-79
2022/09/29 07:21:28;;;;;;;6.45;2.92;;;;;;;22.73;48.94;98641.63;5087144;28;20039;-79
2022/09/29 07:23:53;;;;;;;5.57;2.92;;;;;;;22.56;48.88;98607.03;5074992;28;20044;-79
2022/09/29 07:26:18;;;;;;;8.27;3.50;;;;;;;23.15;48.88;98700.34;5071372;28;20487;-79
2022/09/29 07:28:45;;;;;;;6.00;3.67;;;;;;;22.82;48.63;98648.06;5070658;28;20545;-78
2022/09/29 07:31:14;;;;;;;4.70;3.13;;;;;;;22.79;48.47;98611.72;5075223;28;20405;-79
2022/09/29 07:33:39;;;;;;;9.05;6.32;;;;;;;23.32;48.55;98691.88;5071426;28;20033;-79
2022/09/29 07:36:05;;;;;;;6.25;4.63;;;;;;;23.39;48.20;98698.53;5073412;28;20020;-78
2022/09/29 07:38:31;;;;;;;6.47;4.00;;;;;;;23.09;48.18;98655.69;5079271;28;20110;-79
2022/09/29 07:41:06;;;;;;;6.57;3.40;;;;;;;23.53;48.16;98700.59;5085093;28;20028;-78
2022/09/29 07:43:33;;;;;;;8.25;3.28;;;;;;;23.02;47.95;98622.88;5073390;28;20032;-78
2022/09/29 07:46:01;;;;;;;4.88;2.90;;;;;;;23.27;48.05;98659.59;5084081;28;20024;-78
2022/09/29 07:48:28;;;;;;;7.25;3.92;;;;;;;23.65;48.16;98709.13;5074471;28;20028;-78
2022/09/29 07:51:05;;;;;;;4.43;3.22;;;;;;;23.34;48.24;98655.47;5084551;28;20511;-78
2022/09/29 07:53:32;;;;;;;6.45;3.08;;;;;;;23.57;48.18;98672.00;5080790;28;20042;-78
2022/09/29 07:56:11;;;;;;;6.55;3.35;;;;;;;23.64;48.55;98677.88;5087198;28;20081;-78
2022/09/29 07:58:38;;;;;;;5.97;3.83;;;;;;;23.80;48.26;98684.75;5082856;28;20128;-79
2022/09/29 08:01:09;;;;;;;5.95;3.97;;;;;;;24.06;48.31;98713.06;5082754;28;20603;-79
2022/09/29 08:03:36;;;;;;;7.43;4.35;;;;;;;24.13;48.13;98698.41;5080547;28;20032;-79
2022/09/29 08:06:02;;;;;;;5.07;3.58;;;;;;;24.25;47.86;98705.03;5074688;28;20574;-79
2022/09/29 08:08:28;;;;;;;7.20;3.95;;;;;;;23.83;48.01;98624.88;5086263;28;20036;-79
2022/09/29 08:11:07;;;;;;;4.90;3.90;;;;;;;23.90;48.21;98616.44;5090729;28;20020;-79
2022/09/29 08:13:34;;;;;;;8.45;5.40;;;;;;;24.59;48.45;98699.53;5087063;28;20024;-78
2022/09/29 08:16:01;;;;;;;12.90;11.15;;;;;;;24.38;48.60;98654.97;5088024;28;20511;-78
2022/09/29 08:18:27;;;;;;;9.05;4.95;;;;;;;24.77;48.74;98678.22;5101188;28;20030;-78
2022/09/29 08:20:53;;;;;;;8.40;5.13;;;;;;;24.98;49.15;98725.47;5101006;28;20028;-80
2022/09/29 08:23:19;;;;;;;6.57;5.00;;;;;;;25.08;48.45;98708.31;5118173;28;20411;-79
2022/09/29 08:25:45;;;;;;;11.30;8.63;;;;;;;24.88;48.87;98668.88;5107802;28;20028;-79
2022/09/29 08:28:10;;;;;;;10.35;4.57;;;;;;;24.47;48.66;98571.47;5100484;28;20417;-78
2022/09/29 08:30:37;;;;;;;6.15;4.70;;;;;;;24.80;48.50;98656.84;5093120;28;20054;-79
2022/09/29 08:33:03;;;;;;;9.77;5.72;;;;;;;25.46;48.38;98698.28;5096621;28;20028;-78
2022/09/29 08:35:28;;;;;;;7.30;4.75;;;;;;;25.58;47.47;98699.41;5095248;28;20035;-78
2022/09/29 08:37:57;;;;;;;10.05;6.53;;;;;;;25.18;47.08;98638.72;5094948;28;20032;-79
2022/09/29 08:40:26;;;;;;;8.85;5.82;;;;;;;25.56;46.91;98652.97;5100202;28;20564;-78
2022/09/29 08:43:15;;;;;;;9.02;5.68;;;;;;;25.53;46.48;98640.03;5096533;28;20519;-78
2022/09/29 08:45:46;;;;;;;7.40;4.85;;;;;;;25.64;45.73;98646.06;5098324;28;20408;-79
2022/09/29 08:48:17;;;;;;;;;;;;;;;25.97;45.50;98695.50;5115632;28;20042;-79
2022/09/29 08:50:46;;;;;;;5.97;4.32;;;;;;;25.68;45.50;98619.25;5119765;28;19912;-79
2022/09/29 08:53:15;;;;;;;11.85;5.90;;;;;;;25.96;45.17;98653.31;5090838;28;20081;-79
2022/09/29 08:55:47;;;;;;;9.27;6.53;;;;;;;26.40;44.88;98696.06;5095311;28;20031;-79
2022/09/29 08:58:15;;;;;;;15.82;6.50;;;;;;;26.51;44.09;98708.28;5100312;28;20101;-78
2022/09/29 09:01:08;;;;;;;6.22;4.20;;;;;;;26.03;43.32;98610.47;5106611;28;20126;-78
2022/09/29 09:03:52;;;;;;;4.75;3.35;;;;;;;26.74;41.35;98711.06;5099263;28;20065;-79
2022/09/29 09:06:34;;;;;;;7.35;4.32;;;;;;;26.77;41.37;98705.06;5107721;28;20463;-79
2022/09/29 09:09:15;;;;;;;7.45;5.20;;;;;;;26.80;40.32;98705.25;5094178;28;20053;-79
2022/09/29 09:11:56;;;;;;;13.90;7.82;;;;;;;26.23;41.27;98590.31;5099329;28;20101;-80
2022/09/29 09:14:37;;;;;;;7.95;4.75;;;;;;;27.00;41.40;98693.19;5095728;28;20031;-79
2022/09/29 09:17:23;;;;;;;9.75;4.30;;;;;;;26.66;40.69;98644.88;5097659;28;20447;-78
2022/09/29 09:20:07;;;;;;;4.00;3.60;;;;;;;27.21;40.05;98705.16;5099762;28;20506;-78
2022/09/29 09:22:54;;;;;;;5.53;4.40;;;;;;;27.12;39.64;98671.75;5089955;28;20028;-77
2022/09/29 09:25:27;;;;;;;7.70;5.72;;;;;;;27.18;39.57;98669.72;5094393;28;20488;-78
2022/09/29 09:28:22;;;;;;;6.35;4.57;;;;;;;27.09;39.44;98636.34;5081986;28;20939;-77
2022/09/29 09:31:12;;;;;;;6.85;4.75;;;;;;;27.62;38.64;98709.63;5072057;28;20029;-78
2022/09/29 09:33:46;;;;;;;6.25;4.10;;;;;;;27.19;38.93;98652.34;5090455;28;20035;-78
2022/09/29 09:36:20;;;;;;;7.47;4.60;;;;;;;26.84;38.34;98600.59;5090443;28;20553;-77
2022/09/29 09:38:58;;;;;;;6.35;4.00;;;;;;;27.65;38.46;98713.63;5079912;28;20124;-78
2022/09/29 09:41:27;;;;;;;7.38;3.83;;;;;;;27.45;38.33;98666.06;5074106;28;20430;-78
2022/09/29 09:44:01;;;;;;;6.20;3.92;;;;;;;27.71;38.02;98675.22;5076853;28;20036;-78
2022/09/29 09:46:48;;;;;;;7.22;3.83;;;;;;;27.87;37.79;98667.47;5076502;28;20463;-77
2022/09/29 09:49:22;;;;;;;6.00;3.90;;;;;;;28.27;37.48;98697.34;5088613;28;20059;-79
2022/09/29 09:52:15;;;;;;;6.47;4.38;;;;;;;28.37;37.27;98692.44;5081625;28;20086;-78
2022/09/29 09:54:53;;;;;;;6.88;3.70;;;;;;;28.12;37.05;98638.81;5071615;28;20060;-79
2022/09/29 09:57:31;;;;;;;6.53;3.63;;;;;;;28.51;36.62;98676.00;5085750;28;20034;-78
2022/09/29 10:00:22;;;;;;;5.15;3.50;;;;;;;28.13;36.37;98619.50;5090934;28;20020;-78
2022/09/29 10:02:50;;;;;;;8.02;4.03;;;;;;;28.53;36.80;98683.84;5084217;28;20028;-78
2022/09/29 10:05:25;;;;;;;3.70;2.83;;;;;;;28.35;36.39;98639.56;5072925;28;20028;-77
2022/09/29 10:07:51;;;;;;;5.63;2.88;;;;;;;28.45;36.38;98636.53;5077619;28;20044;-78
2022/09/29 10:10:21;;;;;;;8.32;3.75;;;;;;;28.69;36.22;98655.09;5081345;28;20039;-78
2022/09/29 10:13:03;;;;;;;5.60;3.35;;;;;;;28.17;35.79;98568.09;5077737;28;20099;-78
2022/09/29 10:15:47;;;;;;;5.53;2.65;;;;;;;28.51;35.37;98629.84;5070947;28;20028;-78
2022/09/29 10:18:28;;;;;;;5.43;2.40;;;;;;;28.90;35.26;98652.56;5072789;28;20486;-77
2022/09/29 10:20:54;;;;;;;5.07;2.60;;;;;;;28.94;34.32;98670.63;5072850;28;20453;-78
2022/09/29 10:23:26;;;;;;;4.95;2.97;;;;;;;29.04;34.09;98662.19;5071132;28;20047;-78
2022/09/29 10:26:05;;;;;;;4.32;2.55;;;;;;;28.55;32.89;98562.09;5081718;28;20481;-78
2022/09/29 10:28:44;;;;;;;2.90;2.60;;;;;;;28.84;33.88;98581.28;5088501;28;20188;-78
2022/09/29 10:31:28;;;;;;;2.97;2.58;;;;;;;29.00;32.18;98614.22;5074057;28;20039;-77
2022/09/29 10:33:57;;;;;;;5.10;2.67;;;;;;;28.96;32.89;98605.09;5089485;28;20024;-78
2022/09/29 10:36:27;;;;;;;3.58;2.55;;;;;;;28.98;32.82;98587.34;5086116;28;20051;-78
2022/09/29 10:38:53;;;;;;;5.15;2.75;;;;;;;29.22;32.73;98616.75;5088655;28;20027;-77
2022/09/29 10:41:18;;;;;;;3.50;2.78;;;;;;;29.50;32.29;98649.81;5090650;28;20477;-77
2022/09/29 10:43:46;;;;;;;4.13;3.05;;;;;;;29.48;31.88;98633.03;5088987;28;20498;-77
2022/09/29 10:46:38;;;;;;;4.07;2.53;;;;;;;29.56;31.67;98639.56;5089473;28;20028;-78
2022/09/29 10:49:18;;;;;;;4.03;2.72;;;;;;;29.58;31.78;98654.44;5089214;28;20019;-78
2022/09/29 10:51:55;;;;;;;3.63;2.40;;;;;;;29.65;31.08;98632.19;5081225;28;20063;-78
2022/09/29 10:54:26;;;;;;;5.18;2.53;;;;;;;29.33;31.24;98570.97;5080093;28;20107;-77
2022/09/29 10:56:53;;;;;;;5.00;2.63;;;;;;;29.79;30.67;98640.94;5089961;28;20031;-76
2022/09/29 10:59:19;;;;;;;3.30;2.20;;;;;;;29.47;31.10;98579.75;5087482;28;20417;-78
2022/09/29 11:02:00;;;;;;;2.72;2.00;;;;;;;29.84;31.07;98648.13;5070653;28;20066;-78
2022/09/29 11:04:31;;;;;;;2.78;2.20;;;;;;;29.54;30.76;98598.28;5072333;28;20037;-77
2022/09/29 11:07:09;;;;;;;2.50;2.08;;;;;;;29.53;29.78;98589.34;5091533;28;20085;-78
2022/09/29 11:09:40;;;;;;;2.00;1.80;;;;;;;28.66;30.18;98452.81;5089943;28;20066;-78
2022/09/29 11:12:33;;;;;;;3.53;2.47;;;;;;;29.49;28.65;98550.31;5075816;28;20409;-78
2022/09/29 11:15:00;;;;;;;3.97;2.30;;;;;;;30.11;29.31;98631.38;5073102;28;20040;-78
2022/09/29 11:17:35;;;;;;;2.70;1.88;;;;;;;30.35;29.24;98645.16;5073335;28;20056;-77
2022/09/29 11:20:04;;;;;;;2.13;1.63;;;;;;;30.55;28.56;98645.56;5070776;28;20051;-76
2022/09/29 11:23:14;;;;;;;3.00;1.65;;;;;;;30.62;28.06;98618.59;5077661;28;20488;-77
2022/09/29 11:26:10;;;;;;;3.40;1.90;;;;;;;30.84;28.72;98639.25;5091889;28;20489;-78
2022/09/29 11:28:35;;;;;;;2.95;1.92;;;;;;;30.72;28.61;98637.28;5087797;28;20028;-78
2022/09/29 11:31:01;;;;;;;4.60;2.83;;;;;;;30.69;28.63;98635.22;5090787;28;20035;-78
2022/09/29 11:33:37;;;;;;;2.47;1.90;;;;;;;30.21;28.63;98595.59;5082605;28;20027;-79
2022/09/29 11:36:11;;;;;;;3.92;2.97;;;;;;;30.29;29.25;98649.22;5072957;28;20497;-78
2022/09/29 11:38:48;;;;;;;3.17;2.42;;;;;;;30.32;29.04;98634.13;5077093;28;20039;-78
2022/09/29 11:41:28;;;;;;;3.13;1.90;;;;;;;29.72;27.37;98573.41;5076925;28;20386;-78
2022/09/29 11:43:59;;;;;;;2.80;2.55;;;;;;;29.78;28.63;98619.50;5080010;28;21361;-78
2022/09/29 11:46:30;;;;;;;2.42;1.98;;;;;;;29.57;28.59;98622.91;5075050;28;20386;-78
2022/09/29 11:49:15;;;;;;;;;;;;;;;29.34;28.97;98616.09;5081303;28;20032;-78
2022/09/29 11:51:40;;;;;;;4.82;4.15;;;;;;;29.22;29.57;98570.53;5090620;28;19969;-78
2022/09/29 11:54:17;;;;;;;4.82;3.92;;;;;;;29.39;29.33;98573.19;5099361;28;20032;-79